createdAt,value
2023-03-26T00:02:57.073Z,8.24
2023-03-26T00:07:58.848Z,8.23
2023-03-26T00:13:00.740Z,8.27
2023-03-26T00:18:02.459Z,8.33
2023-03-26T00:23:04.665Z,8.31
2023-03-26T00:28:07.758Z,8.37
2023-03-26T00:33:11.923Z,8.37
2023-03-26T00:38:14.778Z,8.42
2023-03-26T00:43:20.907Z,8.42
2023-03-26T00:48:34.387Z,8.19
2023-03-26T00:53:45.797Z,8.09
2023-03-26T00:58:50.079Z,8.17
2023-03-26T01:04:07.352Z,8.02
2023-03-26T01:09:34.417Z,8.02
2023-03-26T01:14:36.195Z,8.23
2023-03-26T01:20:12.228Z,8.35
2023-03-26T01:25:14.302Z,8.25
2023-03-26T01:30:34.112Z,8.06
2023-03-26T01:35:38.619Z,8.10
2023-03-26T01:40:58.977Z,8.03
2023-03-26T01:46:04.140Z,8.06
2023-03-26T01:51:07.149Z,8.03
2023-03-26T01:56:10.873Z,7.86
2023-03-26T02:01:20.059Z,7.81
2023-03-26T02:06:43.163Z,7.77
2023-03-26T02:11:45.698Z,7.80
2023-03-26T02:16:47.959Z,7.66
2023-03-26T02:21:51.369Z,7.65
2023-03-26T02:26:54.095Z,7.68
2023-03-26T02:31:56.216Z,7.70
2023-03-26T02:36:58.243Z,7.71
2023-03-26T02:42:01.201Z,7.69
2023-03-26T02:47:04.805Z,7.59
2023-03-26T02:52:18.589Z,7.47
2023-03-26T02:57:24.194Z,7.48
2023-03-26T03:02:38.717Z,7.41
2023-03-26T03:07:59.608Z,7.54
2023-03-26T03:13:05.908Z,7.54
2023-03-26T03:18:07.729Z,7.52
2023-03-26T03:23:09.394Z,7.38
2023-03-26T03:28:13.765Z,7.45
2023-03-26T03:33:15.422Z,7.42
2023-03-26T03:38:17.822Z,7.34
2023-03-26T03:43:22.812Z,7.26
2023-03-26T03:48:39.791Z,7.24
2023-03-26T03:53:43.359Z,7.28
2023-03-26T03:58:46.353Z,7.27
2023-03-26T04:03:53.928Z,7.19
2023-03-26T04:08:59.943Z,7.17
2023-03-26T04:14:02.844Z,7.18
2023-03-26T04:19:23.172Z,7.20
2023-03-26T04:24:24.849Z,7.34
2023-03-26T04:29:49.833Z,7.46
2023-03-26T04:35:00.206Z,7.53
2023-03-26T04:40:10.338Z,7.56
2023-03-26T04:45:32.413Z,7.45
2023-03-26T04:50:34.519Z,7.58
2023-03-26T04:55:45.321Z,7.62
2023-03-26T05:00:55.227Z,7.65
2023-03-26T05:05:59.431Z,7.55
2023-03-26T05:11:01.696Z,7.59
2023-03-26T05:16:11.477Z,7.56
2023-03-26T05:21:16.324Z,7.53
2023-03-26T05:26:19.607Z,7.45
2023-03-26T05:31:22.570Z,7.55
2023-03-26T05:36:30.437Z,7.42
2023-03-26T05:41:50.654Z,7.34
2023-03-26T05:46:53.786Z,7.40
2023-03-26T05:52:00.492Z,7.32
2023-03-26T05:57:13.791Z,7.33
2023-03-26T06:02:34.913Z,7.41
2023-03-26T06:07:56.597Z,7.58
2023-03-26T06:13:04.293Z,7.87
2023-03-26T06:18:06.543Z,8.12
2023-03-26T06:23:08.226Z,8.12
2023-03-26T06:28:36.630Z,8.21
2023-03-26T06:33:56.922Z,8.20
2023-03-26T06:38:58.725Z,8.37
2023-03-26T06:44:01.238Z,8.42
2023-03-26T06:49:21.642Z,8.46
2023-03-26T06:54:39.175Z,8.46
2023-03-26T06:59:49.319Z,8.59
2023-03-26T07:05:13.303Z,8.62
2023-03-26T07:10:35.119Z,8.51
2023-03-26T07:16:03.303Z,8.65
2023-03-26T07:21:23.896Z,8.76
2023-03-26T07:26:33.840Z,8.82
2023-03-26T07:32:09.696Z,8.84
2023-03-26T07:37:55.563Z,8.76
2023-03-26T07:43:35.046Z,8.90
2023-03-26T07:48:42.882Z,8.92
2023-03-26T07:53:53.048Z,9.08
2023-03-26T07:59:36.414Z,9.15
2023-03-26T08:05:26.351Z,9.23
2023-03-26T08:10:56.498Z,9.24
2023-03-26T08:16:30.819Z,9.20
2023-03-26T08:21:42.213Z,9.22
2023-03-26T08:27:16.252Z,9.27
2023-03-26T08:32:20.112Z,9.32
2023-03-26T08:37:41.713Z,9.19
2023-03-26T08:42:44.338Z,9.27
2023-03-26T08:48:03.972Z,9.26
2023-03-26T08:53:48.546Z,9.37
2023-03-26T08:59:00.744Z,9.41
2023-03-26T09:04:22.936Z,9.47
2023-03-26T09:09:39.885Z,9.45
2023-03-26T09:14:41.417Z,9.58
2023-03-26T09:20:18.739Z,9.73
2023-03-26T09:25:53.202Z,9.73
2023-03-26T09:31:32.423Z,9.86
2023-03-26T09:36:53.188Z,10.02
2023-03-26T09:42:15.667Z,10.39
2023-03-26T09:47:29.276Z,10.91
2023-03-26T09:52:50.420Z,11.05
2023-03-26T09:58:14.827Z,11.74
2023-03-26T10:03:48.779Z,12.32
2023-03-26T10:09:09.565Z,12.08
2023-03-26T10:14:36.376Z,11.83
2023-03-26T10:20:09.588Z,11.89
2023-03-26T10:25:23.246Z,11.58
2023-03-26T10:30:31.067Z,11.98
2023-03-26T10:35:45.308Z,12.22
2023-03-26T10:41:18.386Z,12.84
2023-03-26T10:46:32.161Z,13.12
2023-03-26T10:51:48.635Z,14.13
2023-03-26T10:56:51.800Z,15.12
2023-03-26T11:02:30.852Z,15.17
2023-03-26T11:07:51.759Z,15.62
2023-03-26T11:13:11.268Z,15.52
2023-03-26T11:18:41.430Z,15.20
2023-03-26T11:24:32.408Z,14.79
2023-03-26T11:29:51.420Z,13.75
2023-03-26T11:35:41.142Z,13.58
2023-03-26T11:40:50.680Z,12.97
2023-03-26T11:46:14.985Z,13.06
2023-03-26T11:51:25.373Z,13.26
2023-03-26T11:57:06.964Z,12.92
2023-03-26T12:02:12.092Z,12.85
2023-03-26T12:07:23.819Z,12.49
2023-03-26T12:12:27.373Z,12.61
2023-03-26T12:17:37.234Z,12.23
2023-03-26T12:22:43.463Z,12.50
2023-03-26T12:28:02.363Z,12.26
2023-03-26T12:33:18.183Z,12.28
2023-03-26T12:38:24.506Z,12.82
2023-03-26T12:44:55.920Z,12.68
2023-03-26T12:48:55.106Z,12.96
2023-03-26T12:54:23.890Z,13.15
2023-03-26T12:59:28.626Z,12.95
2023-03-26T13:04:58.664Z,12.76
2023-03-26T13:10:25.476Z,12.62
2023-03-26T13:15:37.694Z,12.37
2023-03-26T13:21:08.265Z,12.03
2023-03-26T13:26:45.810Z,12.25
2023-03-26T13:32:14.536Z,12.36
2023-03-26T13:37:44.258Z,12.35
2023-03-26T13:42:53.123Z,12.61
2023-03-26T13:47:58.377Z,12.53
2023-03-26T13:53:09.791Z,12.32
2023-03-26T13:58:36.346Z,12.38
2023-03-26T14:03:54.837Z,12.05
2023-03-26T14:09:04.885Z,11.63
2023-03-26T14:14:28.325Z,11.49
2023-03-26T14:19:55.284Z,11.28
2023-03-26T14:25:25.010Z,10.71
2023-03-26T14:30:54.425Z,10.38
2023-03-26T14:36:34.433Z,10.32
2023-03-26T14:41:53.243Z,10.09
2023-03-26T14:47:17.453Z,9.88
2023-03-26T14:52:51.523Z,9.79
2023-03-26T14:58:15.280Z,9.63
2023-03-26T15:03:26.034Z,9.52
2023-03-26T15:08:48.568Z,9.31
2023-03-26T15:14:31.293Z,9.04
2023-03-26T15:19:36.657Z,8.74
2023-03-26T15:24:58.406Z,8.79
2023-03-26T15:30:29.478Z,8.58
2023-03-26T15:35:33.838Z,8.34
2023-03-26T15:40:44.761Z,8.18
2023-03-26T15:46:16.566Z,8.04
2023-03-26T15:51:47.621Z,8.12
2023-03-26T15:57:20.564Z,8.06
2023-03-26T16:02:30.054Z,8.02
2023-03-26T16:07:50.190Z,7.91
2023-03-26T16:13:35.676Z,7.92
2023-03-26T16:19:01.101Z,7.97
2023-03-26T16:24:02.967Z,7.92
2023-03-26T16:29:16.791Z,7.86
2023-03-26T16:34:26.238Z,7.80
2023-03-26T16:39:39.586Z,7.90
2023-03-26T16:44:47.494Z,7.90
2023-03-26T16:50:08.458Z,7.84
2023-03-26T16:55:20.176Z,7.88
2023-03-26T17:00:50.290Z,7.80
2023-03-26T17:05:58.154Z,7.95
2023-03-26T17:11:21.096Z,7.79
2023-03-26T17:16:29.641Z,7.83
2023-03-26T17:22:03.875Z,7.73
2023-03-26T17:27:09.358Z,7.71
2023-03-26T17:32:15.114Z,7.65
2023-03-26T17:37:18.664Z,7.74
2023-03-26T17:42:38.514Z,7.61
2023-03-26T17:48:06.185Z,7.73
2023-03-26T17:53:23.465Z,7.59
2023-03-26T17:58:35.441Z,7.62
2023-03-26T18:03:49.547Z,7.67
2023-03-26T18:09:11.571Z,7.34
2023-03-26T18:14:32.027Z,7.44
2023-03-26T18:19:52.840Z,7.43
2023-03-26T18:24:59.814Z,7.30
2023-03-26T18:30:13.886Z,7.07
2023-03-26T18:35:21.481Z,7.35
2023-03-26T18:40:24.953Z,7.27
2023-03-26T18:45:33.705Z,7.46
2023-03-26T18:50:38.809Z,7.04
2023-03-26T18:55:41.155Z,6.91
2023-03-26T19:00:44.327Z,7.08
2023-03-26T19:05:46.735Z,7.27
2023-03-26T19:10:50.262Z,7.13
2023-03-26T19:15:54.480Z,7.04
2023-03-26T19:21:03.008Z,7.05
2023-03-26T19:26:10.373Z,7.14
2023-03-26T19:31:15.323Z,7.15
2023-03-26T19:36:21.262Z,7.17
2023-03-26T19:41:31.062Z,7.02
2023-03-26T19:46:34.819Z,7.08
2023-03-26T19:52:14.877Z,7.04
2023-03-26T19:57:16.961Z,7.15
2023-03-26T20:02:19.644Z,7.08
2023-03-26T20:07:35.907Z,7.01
2023-03-26T20:12:38.186Z,6.98
2023-03-26T20:17:42.870Z,7.00
2023-03-26T20:22:46.920Z,7.10
2023-03-26T20:27:48.883Z,7.16
2023-03-26T20:32:51.290Z,7.03
2023-03-26T20:38:13.236Z,7.19
2023-03-26T20:43:18.467Z,7.15
2023-03-26T20:48:20.374Z,7.16
2023-03-26T20:53:25.622Z,7.04
2023-03-26T20:58:31.111Z,6.98
2023-03-26T21:03:33.905Z,7.04
2023-03-26T21:08:36.057Z,6.92
2023-03-26T21:13:44.206Z,6.99
2023-03-26T21:18:46.547Z,6.91
2023-03-26T21:24:19.244Z,6.93
2023-03-26T21:29:21.329Z,6.81
2023-03-26T21:34:23.186Z,6.80
2023-03-26T21:39:25.324Z,6.79
2023-03-26T21:44:27.494Z,6.80
2023-03-26T21:49:29.610Z,6.60
2023-03-26T21:54:32.662Z,6.47
2023-03-26T21:59:56.271Z,6.76
2023-03-26T22:05:08.202Z,6.97
2023-03-26T22:10:09.995Z,6.97
2023-03-26T22:15:13.872Z,6.71
2023-03-26T22:20:15.766Z,6.62
2023-03-26T22:25:18.503Z,6.70
2023-03-26T22:30:20.926Z,6.65
2023-03-26T22:35:22.937Z,6.74
2023-03-26T22:40:24.773Z,6.58
2023-03-26T22:45:27.931Z,6.53
2023-03-26T22:50:29.746Z,6.46
2023-03-26T22:55:31.435Z,6.47
2023-03-26T23:00:33.081Z,6.37
2023-03-26T23:05:34.698Z,6.37
2023-03-26T23:10:36.806Z,6.43
2023-03-26T23:15:40.425Z,6.45
2023-03-26T23:20:42.787Z,6.35
2023-03-26T23:25:45.579Z,6.35
2023-03-26T23:30:54.284Z,6.34
2023-03-26T23:35:57.818Z,6.22
2023-03-26T23:40:59.674Z,6.18
2023-03-26T23:46:01.516Z,6.46
2023-03-26T23:51:04.613Z,6.42
2023-03-26T23:56:06.708Z,6.26
